createdAt,value
2023-05-06T00:02:18.713Z,99.90
2023-05-06T00:04:45.754Z,99.90
2023-05-06T00:07:13.258Z,99.90
2023-05-06T00:09:40.162Z,99.90
2023-05-06T00:12:07.103Z,99.90
2023-05-06T00:14:34.074Z,99.90
2023-05-06T00:17:04.032Z,99.90
2023-05-06T00:19:31.383Z,99.90
2023-05-06T00:21:59.155Z,99.90
2023-05-06T00:24:26.232Z,99.90
2023-05-06T00:26:53.543Z,99.90
2023-05-06T00:29:21.300Z,99.90
2023-05-06T00:31:48.647Z,99.90
2023-05-06T00:34:17.556Z,99.90
2023-05-06T00:36:44.926Z,99.90
2023-05-06T00:39:11.812Z,99.90
2023-05-06T00:41:38.715Z,99.90
2023-05-06T00:44:05.969Z,99.90
2023-05-06T00:46:33.605Z,99.90
2023-05-06T00:49:00.638Z,99.90
2023-05-06T00:51:28.249Z,99.90
2023-05-06T00:53:55.233Z,99.90
2023-05-06T00:56:22.433Z,99.90
2023-05-06T00:58:49.494Z,99.90
2023-05-06T01:01:17.898Z,99.90
2023-05-06T01:03:44.947Z,99.90
2023-05-06T01:06:31.774Z,99.90
2023-05-06T01:09:24.831Z,99.90
2023-05-06T01:12:09.778Z,99.90
2023-05-06T01:14:45.415Z,99.90
2023-05-06T01:17:18.608Z,99.90
2023-05-06T01:19:53.583Z,99.90
2023-05-06T01:22:21.184Z,99.90
2023-05-06T01:24:49.349Z,99.90
2023-05-06T01:27:19.686Z,99.90
2023-05-06T01:29:49.124Z,99.90
2023-05-06T01:32:19.532Z,99.90
2023-05-06T01:35:00.222Z,99.90
2023-05-06T01:37:38.845Z,99.90
2023-05-06T01:40:07.916Z,99.90
2023-05-06T01:42:36.423Z,99.90
2023-05-06T01:45:17.956Z,99.90
2023-05-06T01:47:45.887Z,99.90
2023-05-06T01:50:13.290Z,99.90
2023-05-06T01:52:40.549Z,99.90
2023-05-06T01:55:08.380Z,99.90
2023-05-06T01:57:35.994Z,99.90
2023-05-06T02:00:04.390Z,99.90
2023-05-06T02:02:31.357Z,99.90
2023-05-06T02:04:58.318Z,99.90
2023-05-06T02:07:25.196Z,99.90
2023-05-06T02:09:54.606Z,99.90
2023-05-06T02:12:23.024Z,99.90
2023-05-06T02:14:49.950Z,99.90
2023-05-06T02:17:19.463Z,99.90
2023-05-06T02:19:55.380Z,99.90
2023-05-06T02:22:29.805Z,99.90
2023-05-06T02:24:56.760Z,99.90
2023-05-06T02:27:23.916Z,99.90
2023-05-06T02:29:51.506Z,99.90
2023-05-06T02:32:21.705Z,99.90
2023-05-06T02:34:48.800Z,99.90
2023-05-06T02:37:15.931Z,99.90
2023-05-06T02:39:44.258Z,99.90
2023-05-06T02:42:14.726Z,99.90
2023-05-06T02:44:42.233Z,99.90
2023-05-06T02:47:09.091Z,99.90
2023-05-06T02:49:36.322Z,99.90
2023-05-06T02:52:03.333Z,99.90
2023-05-06T02:54:30.342Z,99.90
2023-05-06T02:56:57.302Z,99.90
2023-05-06T02:59:24.251Z,99.90
2023-05-06T03:01:51.334Z,99.90
2023-05-06T03:04:19.036Z,99.90
2023-05-06T03:06:58.944Z,99.90
2023-05-06T03:09:26.063Z,99.90
2023-05-06T03:11:53.195Z,99.90
2023-05-06T03:14:21.806Z,99.90
2023-05-06T03:16:48.847Z,99.90
2023-05-06T03:19:17.222Z,99.90
2023-05-06T03:21:44.537Z,99.90
2023-05-06T03:24:11.566Z,99.90
2023-05-06T03:26:38.382Z,99.90
2023-05-06T03:29:05.453Z,99.90
2023-05-06T03:31:32.550Z,99.90
2023-05-06T03:34:00.447Z,99.90
2023-05-06T03:36:28.038Z,99.90
2023-05-06T03:41:51.978Z,99.90
2023-05-06T03:44:21.302Z,99.90
2023-05-06T03:46:48.511Z,99.90
2023-05-06T03:49:15.544Z,99.90
2023-05-06T03:51:44.932Z,99.90
2023-05-06T03:54:12.066Z,99.90
2023-05-06T03:56:38.912Z,99.90
2023-05-06T03:59:07.270Z,99.90
2023-05-06T04:01:34.318Z,99.90
2023-05-06T04:04:04.294Z,99.90
2023-05-06T04:06:33.842Z,99.90
2023-05-06T04:09:00.815Z,99.90
2023-05-06T04:11:29.696Z,99.90
2023-05-06T04:13:59.405Z,99.90
2023-05-06T04:16:30.778Z,99.90
2023-05-06T04:18:58.773Z,99.90
2023-05-06T04:21:27.034Z,99.90
2023-05-06T04:23:54.779Z,99.90
2023-05-06T04:26:23.352Z,99.90
2023-05-06T04:28:51.003Z,99.90
2023-05-06T04:31:21.146Z,99.90
2023-05-06T04:33:52.193Z,99.90
2023-05-06T04:36:22.614Z,99.90
2023-05-06T04:38:52.386Z,99.90
2023-05-06T04:41:23.941Z,99.90
2023-05-06T04:43:51.009Z,99.90
2023-05-06T04:46:21.524Z,99.90
2023-05-06T04:48:49.924Z,99.90
2023-05-06T04:51:18.862Z,99.90
2023-05-06T04:53:46.781Z,99.90
2023-05-06T04:56:13.991Z,99.90
2023-05-06T04:58:40.956Z,99.90
2023-05-06T05:01:12.333Z,99.90
2023-05-06T05:03:40.453Z,99.90
2023-05-06T05:06:08.626Z,99.90
2023-05-06T05:08:39.243Z,99.90
2023-05-06T05:11:10.791Z,99.90
2023-05-06T05:13:42.496Z,99.90
2023-05-06T05:16:12.830Z,99.90
2023-05-06T05:18:40.001Z,99.90
2023-05-06T05:21:08.729Z,99.90
2023-05-06T05:23:35.875Z,99.90
2023-05-06T05:26:03.733Z,99.90
2023-05-06T05:28:31.342Z,99.90
2023-05-06T05:31:06.084Z,99.90
2023-05-06T05:33:33.756Z,99.90
2023-05-06T05:36:01.526Z,99.90
2023-05-06T05:38:29.345Z,99.90
2023-05-06T05:40:56.444Z,99.90
2023-05-06T05:43:26.004Z,99.90
2023-05-06T05:45:53.594Z,99.90
2023-05-06T05:48:21.374Z,99.90
2023-05-06T05:50:48.172Z,99.90
2023-05-06T05:53:15.268Z,99.90
2023-05-06T05:55:42.118Z,99.90
2023-05-06T05:58:14.170Z,99.90
2023-05-06T06:00:41.090Z,99.90
2023-05-06T06:03:08.675Z,99.90
2023-05-06T06:05:37.066Z,99.90
2023-05-06T06:08:04.481Z,99.90
2023-05-06T06:10:33.581Z,99.90
2023-05-06T06:13:03.442Z,99.90
2023-05-06T06:15:34.369Z,99.90
2023-05-06T06:18:02.317Z,99.90
2023-05-06T06:20:31.857Z,99.90
2023-05-06T06:22:59.142Z,99.90
2023-05-06T06:25:26.339Z,99.90
2023-05-06T06:27:56.072Z,99.90
2023-05-06T06:30:26.618Z,99.90
2023-05-06T06:32:54.559Z,99.90
2023-05-06T06:35:23.784Z,99.90
2023-05-06T06:37:50.718Z,99.90
2023-05-06T06:40:17.682Z,99.90
2023-05-06T06:42:44.781Z,99.90
2023-05-06T06:45:12.177Z,99.90
2023-05-06T06:47:39.450Z,99.90
2023-05-06T06:50:08.871Z,99.90
2023-05-06T06:52:37.545Z,99.90
2023-05-06T06:55:06.594Z,99.90
2023-05-06T06:57:33.524Z,99.90
2023-05-06T07:00:01.499Z,99.90
2023-05-06T07:02:29.267Z,99.40
2023-05-06T07:04:56.528Z,97.70
2023-05-06T07:07:23.458Z,96.90
2023-05-06T07:09:50.710Z,96.10
2023-05-06T07:12:20.016Z,95.50
2023-05-06T07:14:46.966Z,95.60
2023-05-06T07:17:16.705Z,95.50
2023-05-06T07:19:43.741Z,95.40
2023-05-06T07:22:10.901Z,94.10
2023-05-06T07:24:38.135Z,92.10
2023-05-06T07:27:05.071Z,91.10
2023-05-06T07:29:31.991Z,90.50
2023-05-06T07:31:58.951Z,89.90
2023-05-06T07:34:48.809Z,88.90
2023-05-06T07:37:18.270Z,88.00
2023-05-06T07:39:45.323Z,87.60
2023-05-06T07:42:13.523Z,85.60
2023-05-06T07:44:43.403Z,84.70
2023-05-06T07:47:31.804Z,83.80
2023-05-06T07:50:08.725Z,83.30
2023-05-06T07:52:35.855Z,83.30
2023-05-06T07:55:04.126Z,82.60
2023-05-06T07:57:34.251Z,83.20
2023-05-06T08:00:01.225Z,83.10
2023-05-06T08:02:28.312Z,82.60
2023-05-06T08:04:55.869Z,81.80
2023-05-06T08:07:22.768Z,81.20
2023-05-06T08:09:49.707Z,80.80
2023-05-06T08:12:17.854Z,81.30
2023-05-06T08:14:45.070Z,81.70
2023-05-06T08:17:13.304Z,82.20
2023-05-06T08:19:40.290Z,83.00
2023-05-06T08:22:11.681Z,83.40
2023-05-06T08:24:38.549Z,82.60
2023-05-06T08:27:05.687Z,81.70
2023-05-06T08:29:32.509Z,80.50
2023-05-06T08:32:01.537Z,79.60
2023-05-06T08:34:29.682Z,78.90
2023-05-06T08:36:56.845Z,77.50
2023-05-06T08:39:26.014Z,76.90
2023-05-06T08:41:54.546Z,76.70
2023-05-06T08:44:25.572Z,75.40
2023-05-06T08:46:54.504Z,72.90
2023-05-06T08:49:24.121Z,71.50
2023-05-06T08:51:56.034Z,70.20
2023-05-06T08:54:26.199Z,68.90
2023-05-06T08:56:57.399Z,66.80
2023-05-06T08:59:24.859Z,65.40
2023-05-06T09:01:53.283Z,65.40
2023-05-06T09:04:20.386Z,64.20
2023-05-06T09:06:47.289Z,61.50
2023-05-06T09:09:17.276Z,58.80
2023-05-06T09:11:53.501Z,56.00
2023-05-06T09:14:21.793Z,54.00
2023-05-06T09:16:50.982Z,53.90
2023-05-06T09:19:21.299Z,53.00
2023-05-06T09:21:51.132Z,50.80
2023-05-06T09:24:18.387Z,50.30
2023-05-06T09:26:46.418Z,50.20
2023-05-06T09:29:13.977Z,52.50
2023-05-06T09:31:44.314Z,53.00
2023-05-06T09:34:12.431Z,51.20
2023-05-06T09:36:40.649Z,50.60
2023-05-06T09:39:07.853Z,48.60
2023-05-06T09:41:35.470Z,47.50
2023-05-06T09:44:02.479Z,47.20
2023-05-06T09:46:29.915Z,46.20
2023-05-06T09:48:58.232Z,45.20
2023-05-06T09:51:27.821Z,44.50
2023-05-06T09:53:57.685Z,46.20
2023-05-06T09:56:26.473Z,47.50
2023-05-06T09:58:55.066Z,48.00
2023-05-06T10:01:35.190Z,46.90
2023-05-06T10:04:08.166Z,44.10
2023-05-06T10:06:37.565Z,43.20
2023-05-06T10:14:19.922Z,42.50
2023-05-06T10:16:49.683Z,41.70
2023-05-06T10:19:24.314Z,41.20
2023-05-06T10:22:03.412Z,40.00
2023-05-06T10:24:37.290Z,41.10
2023-05-06T10:27:06.437Z,40.30
2023-05-06T10:29:37.694Z,40.80
2023-05-06T10:32:05.204Z,39.90
2023-05-06T10:34:39.026Z,41.40
2023-05-06T10:37:06.433Z,42.20
2023-05-06T10:39:33.620Z,44.00
2023-05-06T10:42:01.984Z,44.40
2023-05-06T10:45:07.210Z,43.80
2023-05-06T10:47:54.590Z,42.60
2023-05-06T10:50:26.476Z,41.50
2023-05-06T10:52:59.380Z,41.80
2023-05-06T10:56:07.268Z,40.50
2023-05-06T10:58:36.569Z,41.30
2023-05-06T11:01:03.542Z,40.30
2023-05-06T11:03:34.581Z,40.50
2023-05-06T11:06:02.131Z,41.70
2023-05-06T11:08:30.434Z,41.80
2023-05-06T11:10:57.453Z,41.40
2023-05-06T11:13:29.415Z,41.90
2023-05-06T11:15:57.694Z,42.30
2023-05-06T11:18:24.956Z,41.20
2023-05-06T11:21:02.681Z,40.90
2023-05-06T11:23:55.045Z,41.40
2023-05-06T11:26:21.993Z,40.40
2023-05-06T11:28:51.269Z,40.40
2023-05-06T11:31:21.702Z,39.10
2023-05-06T11:33:50.048Z,40.60
2023-05-06T11:36:21.358Z,39.80
2023-05-06T11:38:53.328Z,39.00
2023-05-06T11:41:22.301Z,37.90
2023-05-06T11:43:52.741Z,38.20
2023-05-06T11:46:22.599Z,37.60
2023-05-06T11:48:50.674Z,38.30
2023-05-06T11:51:22.877Z,38.60
2023-05-06T11:53:50.095Z,37.10
2023-05-06T11:56:17.102Z,37.20
2023-05-06T11:58:44.345Z,37.10
2023-05-06T12:01:11.246Z,39.00
2023-05-06T12:03:38.669Z,39.50
2023-05-06T12:06:05.867Z,40.40
2023-05-06T12:08:34.839Z,41.00
2023-05-06T12:11:03.838Z,42.00
2023-05-06T12:13:39.146Z,41.70
2023-05-06T12:16:09.380Z,41.20
2023-05-06T12:18:36.507Z,42.90
2023-05-06T12:21:11.917Z,40.60
2023-05-06T12:23:54.103Z,40.00
2023-05-06T12:26:22.362Z,38.00
2023-05-06T12:29:10.849Z,38.30
2023-05-06T12:31:37.964Z,38.20
2023-05-06T12:34:05.577Z,38.10
2023-05-06T12:36:33.028Z,37.90
2023-05-06T12:39:01.831Z,37.60
2023-05-06T12:41:46.946Z,38.30
2023-05-06T12:44:36.991Z,37.60
2023-05-06T12:47:09.174Z,37.50
2023-05-06T12:50:12.089Z,38.90
2023-05-06T12:52:44.868Z,39.60
2023-05-06T12:55:11.763Z,40.00
2023-05-06T12:57:38.592Z,41.60
2023-05-06T13:00:07.447Z,39.90
2023-05-06T13:02:34.736Z,39.40
2023-05-06T13:05:03.650Z,40.30
2023-05-06T13:07:30.583Z,41.40
2023-05-06T13:09:57.807Z,41.70
2023-05-06T13:12:24.822Z,41.80
2023-05-06T13:14:52.336Z,42.90
2023-05-06T13:17:19.662Z,42.40
2023-05-06T13:19:47.908Z,42.30
2023-05-06T13:22:14.996Z,42.60
2023-05-06T13:24:43.798Z,42.90
2023-05-06T13:27:10.861Z,42.80
2023-05-06T13:29:38.174Z,43.30
2023-05-06T13:32:09.217Z,41.20
2023-05-06T13:34:37.814Z,41.80
2023-05-06T13:37:04.992Z,42.60
2023-05-06T13:39:31.953Z,42.80
2023-05-06T13:41:59.849Z,42.80
2023-05-06T13:44:26.934Z,42.20
2023-05-06T13:49:39.024Z,41.50
2023-05-06T13:52:07.980Z,41.80
2023-05-06T13:54:37.765Z,42.90
2023-05-06T13:57:04.849Z,42.80
2023-05-06T13:59:31.747Z,43.30
2023-05-06T14:02:01.398Z,41.80
2023-05-06T14:04:28.848Z,41.40
2023-05-06T14:06:58.698Z,42.40
2023-05-06T14:09:25.676Z,42.50
2023-05-06T14:11:53.961Z,41.40
2023-05-06T14:14:22.725Z,40.70
2023-05-06T14:16:53.469Z,41.50
2023-05-06T14:19:25.789Z,41.90
2023-05-06T14:21:52.725Z,42.50
2023-05-06T14:24:24.069Z,43.00
2023-05-06T14:27:05.366Z,42.90
2023-05-06T14:29:32.373Z,42.90
2023-05-06T14:31:59.310Z,43.60
2023-05-06T14:34:36.807Z,43.30
2023-05-06T14:37:08.644Z,44.30
2023-05-06T14:39:39.338Z,43.90
2023-05-06T14:42:06.667Z,43.10
2023-05-06T14:47:18.397Z,44.40
2023-05-06T14:49:53.067Z,44.60
2023-05-06T14:52:30.661Z,44.30
2023-05-06T14:54:58.016Z,45.00
2023-05-06T15:00:15.093Z,43.80
2023-05-06T15:02:42.076Z,44.90
2023-05-06T15:05:10.484Z,44.00
2023-05-06T15:07:37.757Z,43.70
2023-05-06T15:10:05.168Z,43.40
2023-05-06T15:12:32.136Z,43.40
2023-05-06T15:14:59.193Z,43.90
2023-05-06T15:17:29.188Z,45.50
2023-05-06T15:19:57.422Z,45.10
2023-05-06T15:22:35.897Z,45.00
2023-05-06T15:25:04.373Z,45.90
2023-05-06T15:27:32.511Z,45.90
2023-05-06T15:30:04.833Z,45.90
2023-05-06T15:32:32.649Z,46.00
2023-05-06T15:34:59.643Z,46.10
2023-05-06T15:37:29.345Z,46.80
2023-05-06T15:39:57.763Z,46.80
2023-05-06T15:42:24.703Z,47.60
2023-05-06T15:44:53.486Z,47.90
2023-05-06T15:47:20.896Z,47.60
2023-05-06T15:49:54.338Z,48.60
2023-05-06T15:52:34.581Z,48.70
2023-05-06T15:55:01.839Z,48.50
2023-05-06T15:57:34.443Z,49.20
2023-05-06T16:00:04.547Z,48.50
2023-05-06T16:02:32.864Z,49.10
2023-05-06T16:05:01.105Z,48.70
2023-05-06T16:07:29.508Z,48.30
2023-05-06T16:09:56.750Z,47.10
2023-05-06T16:12:23.583Z,47.60
2023-05-06T16:14:51.836Z,47.60
2023-05-06T16:17:18.685Z,48.40
2023-05-06T16:19:45.574Z,48.90
2023-05-06T16:22:13.083Z,48.60
2023-05-06T16:24:40.160Z,48.70
2023-05-06T16:27:07.139Z,49.10
2023-05-06T16:29:35.448Z,49.30
2023-05-06T16:32:02.656Z,49.30
2023-05-06T16:34:32.201Z,49.10
2023-05-06T16:37:00.670Z,50.10
2023-05-06T16:39:28.452Z,50.30
2023-05-06T16:41:55.696Z,49.50
2023-05-06T16:44:22.671Z,50.20
2023-05-06T16:46:52.069Z,50.40
2023-05-06T16:49:21.600Z,50.20
2023-05-06T16:51:53.466Z,50.30
2023-05-06T16:54:21.188Z,51.30
2023-05-06T16:56:52.611Z,51.70
2023-05-06T16:59:22.677Z,51.90
2023-05-06T17:01:51.419Z,51.80
2023-05-06T17:04:18.675Z,52.10
2023-05-06T17:06:48.458Z,52.60
2023-05-06T17:09:22.606Z,52.40
2023-05-06T17:11:50.726Z,52.70
2023-05-06T17:14:17.581Z,53.10
2023-05-06T17:16:47.261Z,53.70
2023-05-06T17:19:26.392Z,54.10
2023-05-06T17:21:53.677Z,54.30
2023-05-06T17:24:35.385Z,53.80
2023-05-06T17:27:04.343Z,53.70
2023-05-06T17:29:32.908Z,53.90
2023-05-06T17:32:00.850Z,54.10
2023-05-06T17:34:30.017Z,54.50
2023-05-06T17:37:00.509Z,54.20
2023-05-06T17:39:31.816Z,54.70
2023-05-06T17:42:11.714Z,55.00
2023-05-06T17:44:49.858Z,56.50
2023-05-06T17:50:02.427Z,59.80
2023-05-06T17:52:29.607Z,61.60
2023-05-06T17:55:11.301Z,63.40
2023-05-06T17:57:42.980Z,65.10
2023-05-06T18:00:15.747Z,66.40
2023-05-06T18:02:43.399Z,67.70
2023-05-06T18:05:12.331Z,69.40
2023-05-06T18:07:40.722Z,70.40
2023-05-06T18:10:11.351Z,71.20
2023-05-06T18:12:38.647Z,72.20
2023-05-06T18:15:11.042Z,72.80
2023-05-06T18:17:41.067Z,73.70
2023-05-06T18:20:10.439Z,74.40
2023-05-06T18:22:39.994Z,74.90
2023-05-06T18:25:09.230Z,75.20
2023-05-06T18:27:37.632Z,76.00
2023-05-06T18:30:06.368Z,76.50
2023-05-06T18:32:34.777Z,77.00
2023-05-06T18:35:01.904Z,77.50
2023-05-06T18:37:29.629Z,77.90
2023-05-06T18:39:56.853Z,78.40
2023-05-06T18:42:27.376Z,78.80
2023-05-06T18:44:56.370Z,79.20
2023-05-06T18:47:37.012Z,79.60
2023-05-06T18:50:05.251Z,80.40
2023-05-06T18:52:33.504Z,80.30
2023-05-06T18:55:00.365Z,80.70
2023-05-06T18:57:32.908Z,81.00
2023-05-06T19:00:00.304Z,81.40
2023-05-06T19:02:30.049Z,81.70
2023-05-06T19:04:58.239Z,82.00
2023-05-06T19:07:26.181Z,82.20
2023-05-06T19:09:52.978Z,82.30
2023-05-06T19:12:24.199Z,82.80
2023-05-06T19:14:53.610Z,83.40
2023-05-06T19:20:02.600Z,83.70
2023-05-06T19:22:33.742Z,83.80
2023-05-06T19:25:02.362Z,84.20
2023-05-06T19:27:32.618Z,84.20
2023-05-06T19:30:28.481Z,84.20
2023-05-06T19:32:57.488Z,84.40
2023-05-06T19:35:27.599Z,84.70
2023-05-06T19:37:54.464Z,85.30
2023-05-06T19:40:22.546Z,85.90
2023-05-06T19:42:55.016Z,86.20
2023-05-06T19:45:23.993Z,86.50
2023-05-06T19:47:50.829Z,87.00
2023-05-06T19:50:17.933Z,87.20
2023-05-06T19:52:45.013Z,87.80
2023-05-06T19:55:13.123Z,88.50
2023-05-06T19:57:40.347Z,89.10
2023-05-06T20:00:10.945Z,89.70
2023-05-06T20:02:39.029Z,90.10
2023-05-06T20:05:06.763Z,90.30
2023-05-06T20:07:34.086Z,90.60
2023-05-06T20:10:01.260Z,90.80
2023-05-06T20:12:28.179Z,91.00
2023-05-06T20:14:56.148Z,91.20
2023-05-06T20:17:24.062Z,91.50
2023-05-06T20:19:52.678Z,92.00
2023-05-06T20:22:22.311Z,92.30
2023-05-06T20:24:49.784Z,92.50
2023-05-06T20:27:17.004Z,92.80
2023-05-06T20:29:51.230Z,93.00
2023-05-06T20:32:19.717Z,93.30
2023-05-06T20:34:46.657Z,93.80
2023-05-06T20:37:14.794Z,93.70
2023-05-06T20:39:41.701Z,93.80
2023-05-06T20:42:09.852Z,94.00
2023-05-06T20:44:38.184Z,94.30
2023-05-06T20:47:10.669Z,94.50
2023-05-06T20:49:43.354Z,94.60
2023-05-06T20:52:14.628Z,94.80
2023-05-06T20:54:43.744Z,95.00
2023-05-06T20:57:12.191Z,95.20
2023-05-06T20:59:39.469Z,94.90
2023-05-06T21:02:06.692Z,95.20
2023-05-06T21:04:34.031Z,95.50
2023-05-06T21:07:01.630Z,95.70
2023-05-06T21:09:30.258Z,95.80
2023-05-06T21:11:57.174Z,96.00
2023-05-06T21:14:27.921Z,96.20
2023-05-06T21:16:55.539Z,96.40
2023-05-06T21:19:24.459Z,96.60
2023-05-06T21:21:51.726Z,96.80
2023-05-06T21:24:22.867Z,96.80
2023-05-06T21:26:52.219Z,96.80
2023-05-06T21:29:21.627Z,96.90
2023-05-06T21:31:49.763Z,97.00
2023-05-06T21:34:17.409Z,97.20
2023-05-06T21:36:47.123Z,97.30
2023-05-06T21:39:14.643Z,97.50
2023-05-06T21:41:41.645Z,97.60
2023-05-06T21:44:09.392Z,97.80
2023-05-06T21:46:38.253Z,97.90
2023-05-06T21:49:07.082Z,98.00
2023-05-06T21:51:36.267Z,98.10
2023-05-06T21:54:03.805Z,98.10
2023-05-06T21:56:31.786Z,98.40
2023-05-06T21:58:58.936Z,98.50
2023-05-06T22:01:29.410Z,98.70
2023-05-06T22:03:58.569Z,98.80
2023-05-06T22:06:25.706Z,98.80
2023-05-06T22:08:52.622Z,98.80
2023-05-06T22:11:23.911Z,98.90
2023-05-06T22:13:53.865Z,98.90
2023-05-06T22:16:20.938Z,99.10
2023-05-06T22:18:48.901Z,99.20
2023-05-06T22:21:15.937Z,99.30
2023-05-06T22:23:43.031Z,99.30
2023-05-06T22:26:10.050Z,99.30
2023-05-06T22:28:40.115Z,99.50
2023-05-06T22:31:08.568Z,99.60
2023-05-06T22:33:35.532Z,99.60
2023-05-06T22:36:02.380Z,99.70
2023-05-06T22:38:29.632Z,99.90
2023-05-06T22:40:56.849Z,99.90
2023-05-06T22:43:23.806Z,99.90
2023-05-06T22:45:51.840Z,99.90
2023-05-06T22:48:18.654Z,99.90
2023-05-06T22:50:46.872Z,99.90
2023-05-06T22:53:15.760Z,99.90
2023-05-06T22:55:43.876Z,99.90
2023-05-06T22:58:10.979Z,99.90
2023-05-06T23:00:37.893Z,99.90
2023-05-06T23:03:06.076Z,99.90
2023-05-06T23:05:34.270Z,99.90
2023-05-06T23:08:01.177Z,99.90
2023-05-06T23:10:28.026Z,99.90
2023-05-06T23:12:59.105Z,99.90
2023-05-06T23:15:28.492Z,99.90
2023-05-06T23:17:56.903Z,99.90
2023-05-06T23:20:25.075Z,99.90
2023-05-06T23:22:52.068Z,99.90
2023-05-06T23:25:19.140Z,99.90
2023-05-06T23:27:45.982Z,99.90
2023-05-06T23:30:13.653Z,99.90
2023-05-06T23:32:41.267Z,99.90
2023-05-06T23:35:08.703Z,99.90
2023-05-06T23:37:36.149Z,99.90
2023-05-06T23:40:04.918Z,99.90
2023-05-06T23:42:33.743Z,99.90
2023-05-06T23:45:01.023Z,99.90
2023-05-06T23:47:27.973Z,99.90
2023-05-06T23:49:56.282Z,99.90
2023-05-06T23:52:23.139Z,99.90
2023-05-06T23:54:50.260Z,99.90
2023-05-06T23:57:17.229Z,99.90
2023-05-06T23:59:44.461Z,99.90
